createdAt,value
2022-10-30T00:00:44.038Z,97654.94
2022-10-30T00:02:47.815Z,97659.56
2022-10-30T00:04:50.416Z,97658.78
2022-10-30T00:06:52.979Z,97650.22
2022-10-30T00:08:55.548Z,97647.59
2022-10-30T00:10:58.113Z,97647.47
2022-10-30T00:13:00.710Z,97650.31
2022-10-30T00:15:05.840Z,97643.56
2022-10-30T00:17:11.089Z,97649.00
2022-10-30T00:19:13.655Z,97652.63
2022-10-30T00:21:17.087Z,97652.84
2022-10-30T00:23:20.309Z,97654.47
2022-10-30T00:25:23.078Z,97650.13
2022-10-30T00:27:25.650Z,97644.88
2022-10-30T00:29:28.228Z,97648.69
2022-10-30T00:31:32.327Z,97647.91
2022-10-30T00:33:34.908Z,97644.34
2022-10-30T00:35:37.495Z,97642.84
2022-10-30T00:37:40.092Z,97641.22
2022-10-30T00:39:42.656Z,97642.09
2022-10-30T00:41:45.215Z,97637.75
2022-10-30T00:43:47.996Z,97630.66
2022-10-30T00:45:50.577Z,97630.56
2022-10-30T00:47:58.937Z,97625.31
2022-10-30T00:50:12.941Z,97615.75
2022-10-30T00:52:16.007Z,97619.09
2022-10-30T00:54:19.862Z,97619.19
2022-10-30T00:56:23.854Z,97613.88
2022-10-30T00:58:30.116Z,97619.81
2022-10-30T01:00:32.857Z,97616.31
2022-10-30T01:02:35.818Z,97615.53
2022-10-30T01:04:40.781Z,97618.09
2022-10-30T01:06:48.137Z,97611.94
2022-10-30T01:08:56.932Z,97618.09
2022-10-30T01:11:04.426Z,97610.13
2022-10-30T01:13:07.867Z,97615.38
2022-10-30T01:15:11.977Z,97612.69
2022-10-30T01:17:47.231Z,97612.75
2022-10-30T01:22:30.869Z,97616.09
2022-10-30T01:24:47.444Z,97615.47
2022-10-30T01:26:59.014Z,97610.22
2022-10-30T01:29:14.345Z,97614.81
2022-10-30T01:31:32.306Z,97609.56
2022-10-30T01:33:47.103Z,97611.41
2022-10-30T01:35:58.213Z,97610.78
2022-10-30T01:38:07.772Z,97606.63
2022-10-30T01:40:14.147Z,97606.63
2022-10-30T01:42:46.418Z,97610.34
2022-10-30T01:44:49.155Z,97608.56
2022-10-30T01:47:10.479Z,97602.53
2022-10-30T01:49:28.520Z,97609.72
2022-10-30T01:51:46.691Z,97603.53
2022-10-30T01:54:02.426Z,97602.75
2022-10-30T01:56:19.827Z,97609.09
2022-10-30T01:58:28.119Z,97608.06
2022-10-30T02:00:30.715Z,97603.84
2022-10-30T02:02:33.976Z,97596.25
2022-10-30T02:04:37.255Z,97603.41
2022-10-30T02:06:42.003Z,97598.25
2022-10-30T02:08:44.575Z,97599.19
2022-10-30T02:10:49.145Z,97597.38
2022-10-30T02:12:52.255Z,97595.63
2022-10-30T02:14:58.840Z,97598.16
2022-10-30T02:17:05.055Z,97593.94
2022-10-30T02:19:07.759Z,97594.75
2022-10-30T02:21:11.803Z,97595.78
2022-10-30T02:23:18.899Z,97592.38
2022-10-30T02:25:21.469Z,97593.16
2022-10-30T02:27:23.996Z,97590.19
2022-10-30T02:29:26.592Z,97592.09
2022-10-30T02:31:29.308Z,97584.94
2022-10-30T02:33:31.872Z,97586.28
2022-10-30T02:35:35.337Z,97581.25
2022-10-30T02:37:39.584Z,97581.34
2022-10-30T02:39:42.143Z,97580.47
2022-10-30T02:41:44.811Z,97590.97
2022-10-30T02:43:47.367Z,97588.19
2022-10-30T02:45:51.475Z,97588.91
2022-10-30T02:47:54.077Z,97587.84
2022-10-30T02:49:57.293Z,97586.63
2022-10-30T02:51:59.832Z,97579.59
2022-10-30T02:54:03.755Z,97577.06
2022-10-30T02:56:08.540Z,97569.78
2022-10-30T02:58:11.180Z,97568.94
2022-10-30T03:00:15.158Z,97566.56
2022-10-30T03:02:17.788Z,97566.72
2022-10-30T03:04:20.359Z,97568.72
2022-10-30T03:06:23.010Z,97569.66
2022-10-30T03:08:25.532Z,97575.03
2022-10-30T03:10:29.451Z,97569.00
2022-10-30T03:12:32.023Z,97569.88
2022-10-30T03:14:34.646Z,97573.34
2022-10-30T03:16:38.306Z,97572.41
2022-10-30T03:18:41.487Z,97577.66
2022-10-30T03:20:44.072Z,97580.28
2022-10-30T03:22:46.616Z,97575.91
2022-10-30T03:24:49.193Z,97578.44
2022-10-30T03:26:53.144Z,97580.19
2022-10-30T03:28:55.761Z,97582.78
2022-10-30T03:31:02.669Z,97581.06
2022-10-30T03:33:05.365Z,97582.81
2022-10-30T03:35:08.478Z,97574.41
2022-10-30T03:37:11.051Z,97586.81
2022-10-30T03:39:13.574Z,97587.66
2022-10-30T03:41:16.135Z,97585.13
2022-10-30T03:43:20.506Z,97589.31
2022-10-30T03:45:23.014Z,97591.28
2022-10-30T03:47:25.545Z,97583.78
2022-10-30T03:49:28.117Z,97582.38
2022-10-30T03:51:30.683Z,97588.59
2022-10-30T03:53:33.275Z,97587.81
2022-10-30T03:55:35.915Z,97594.84
2022-10-30T03:57:39.212Z,97601.84
2022-10-30T03:59:43.173Z,97595.72
2022-10-30T04:01:45.979Z,97596.59
2022-10-30T04:03:48.679Z,97597.38
2022-10-30T04:05:54.133Z,97594.41
2022-10-30T04:07:58.393Z,97594.97
2022-10-30T04:10:00.955Z,97595.63
2022-10-30T04:12:03.602Z,97601.13
2022-10-30T04:14:06.215Z,97595.03
2022-10-30T04:16:10.201Z,97600.06
2022-10-30T04:18:13.738Z,97597.16
2022-10-30T04:20:16.545Z,97594.41
2022-10-30T04:22:19.106Z,97603.81
2022-10-30T04:24:21.828Z,97597.22
2022-10-30T04:26:24.450Z,97601.44
2022-10-30T04:28:27.230Z,97597.47
2022-10-30T04:30:34.084Z,97591.28
2022-10-30T04:32:38.348Z,97600.94
2022-10-30T04:34:40.885Z,97595.97
2022-10-30T04:36:43.476Z,97598.56
2022-10-30T04:38:46.059Z,97591.44
2022-10-30T04:40:48.629Z,97596.91
2022-10-30T04:42:51.432Z,97603.19
2022-10-30T04:44:54.004Z,97601.50
2022-10-30T04:46:56.564Z,97604.03
2022-10-30T04:49:00.477Z,97602.63
2022-10-30T04:51:03.062Z,97603.66
2022-10-30T04:53:07.651Z,97595.94
2022-10-30T04:55:11.611Z,97592.47
2022-10-30T04:57:14.187Z,97596.91
2022-10-30T04:59:16.730Z,97596.13
2022-10-30T05:01:19.410Z,97589.25
2022-10-30T05:03:23.700Z,97590.97
2022-10-30T05:05:28.330Z,97593.78
2022-10-30T05:07:30.928Z,97589.56
2022-10-30T05:09:33.717Z,97593.13
2022-10-30T05:11:36.287Z,97594.09
2022-10-30T05:13:38.856Z,97595.09
2022-10-30T05:15:41.460Z,97590.72
2022-10-30T05:17:44.218Z,97586.44
2022-10-30T05:19:46.790Z,97588.16
2022-10-30T05:21:50.711Z,97585.53
2022-10-30T05:23:53.267Z,97587.50
2022-10-30T05:25:55.839Z,97581.44
2022-10-30T05:27:59.743Z,97586.66
2022-10-30T05:30:03.016Z,97586.91
2022-10-30T05:32:06.144Z,97583.50
2022-10-30T05:34:08.809Z,97583.66
2022-10-30T05:36:11.384Z,97590.94
2022-10-30T05:38:15.360Z,97584.03
2022-10-30T05:40:17.979Z,97589.41
2022-10-30T05:42:20.538Z,97585.03
2022-10-30T05:44:34.700Z,97585.84
2022-10-30T05:46:45.698Z,97586.66
2022-10-30T05:48:48.351Z,97593.88
2022-10-30T05:50:50.912Z,97592.25
2022-10-30T05:52:56.695Z,97591.38
2022-10-30T05:55:01.074Z,97590.66
2022-10-30T05:57:03.647Z,97593.34
2022-10-30T05:59:06.230Z,97590.88
2022-10-30T06:01:09.424Z,97595.19
2022-10-30T06:03:13.507Z,97594.22
2022-10-30T06:05:16.137Z,97595.97
2022-10-30T06:07:18.691Z,97597.66
2022-10-30T06:09:21.263Z,97591.63
2022-10-30T06:11:25.187Z,97602.00
2022-10-30T06:13:27.779Z,97601.19
2022-10-30T06:15:31.598Z,97600.34
2022-10-30T06:17:34.168Z,97598.81
2022-10-30T06:19:36.863Z,97596.03
2022-10-30T06:21:39.418Z,97606.31
2022-10-30T06:23:41.986Z,97600.56
2022-10-30T06:25:44.564Z,97602.50
2022-10-30T06:27:48.487Z,97610.59
2022-10-30T06:29:51.126Z,97602.31
2022-10-30T06:31:53.670Z,97597.94
2022-10-30T06:33:56.304Z,97606.69
2022-10-30T06:35:58.947Z,97597.13
2022-10-30T06:38:01.630Z,97604.25
2022-10-30T06:40:04.898Z,97605.22
2022-10-30T06:42:07.577Z,97604.41
2022-10-30T06:44:11.590Z,97604.41
2022-10-30T06:46:14.277Z,97604.25
2022-10-30T06:48:18.772Z,97604.06
2022-10-30T06:50:24.135Z,97598.59
2022-10-30T06:52:26.726Z,97600.16
2022-10-30T06:54:29.299Z,97606.06
2022-10-30T06:56:33.972Z,97606.72
2022-10-30T06:58:39.084Z,97604.03
2022-10-30T07:00:43.122Z,97598.50
2022-10-30T07:02:45.725Z,97604.47
2022-10-30T07:04:48.291Z,97605.19
2022-10-30T07:06:50.873Z,97608.44
2022-10-30T07:08:53.448Z,97607.41
2022-10-30T07:10:57.812Z,97607.84
2022-10-30T07:13:00.822Z,97607.84
2022-10-30T07:15:03.773Z,97600.69
2022-10-30T07:17:07.670Z,97604.06
2022-10-30T07:19:10.302Z,97602.69
2022-10-30T07:21:12.843Z,97606.03
2022-10-30T07:23:15.407Z,97600.78
2022-10-30T07:25:18.231Z,97604.75
2022-10-30T07:27:20.801Z,97606.50
2022-10-30T07:29:23.552Z,97606.38
2022-10-30T07:31:41.418Z,97603.56
2022-10-30T07:33:46.782Z,97608.44
2022-10-30T07:35:49.410Z,97622.88
2022-10-30T07:37:51.951Z,97605.78
2022-10-30T07:39:54.535Z,97613.31
2022-10-30T07:41:57.116Z,97615.78
2022-10-30T07:43:59.671Z,97619.41
2022-10-30T07:46:02.266Z,97611.56
2022-10-30T07:48:05.200Z,97610.53
2022-10-30T07:50:10.421Z,97603.38
2022-10-30T07:52:17.447Z,97614.72
2022-10-30T07:54:20.239Z,97619.03
2022-10-30T07:56:22.802Z,97616.34
2022-10-30T07:58:25.462Z,97615.03
2022-10-30T08:00:28.171Z,97611.66
2022-10-30T08:02:30.978Z,97613.50
2022-10-30T08:04:33.600Z,97617.63
2022-10-30T08:06:37.485Z,97615.81
2022-10-30T08:08:43.179Z,97623.41
2022-10-30T08:10:46.236Z,97625.25
2022-10-30T08:12:48.825Z,97627.09
2022-10-30T08:14:51.419Z,97621.84
2022-10-30T08:16:53.956Z,97621.00
2022-10-30T08:18:56.648Z,97621.84
2022-10-30T08:20:59.201Z,97621.84
2022-10-30T08:23:03.394Z,97620.03
2022-10-30T08:25:06.783Z,97621.66
2022-10-30T08:27:10.483Z,97625.72
2022-10-30T08:29:13.123Z,97622.75
2022-10-30T08:31:15.696Z,97615.34
2022-10-30T08:33:18.325Z,97616.50
2022-10-30T08:35:21.043Z,97621.22
2022-10-30T08:37:23.683Z,97624.22
2022-10-30T08:39:27.644Z,97616.56
2022-10-30T08:41:30.229Z,97616.03
2022-10-30T08:43:32.807Z,97616.03
2022-10-30T08:45:35.513Z,97617.75
2022-10-30T08:47:38.164Z,97614.28
2022-10-30T08:49:40.795Z,97615.97
2022-10-30T08:51:44.295Z,97610.72
2022-10-30T08:53:49.232Z,97611.56
2022-10-30T08:55:53.565Z,97614.91
2022-10-30T08:57:56.121Z,97614.91
2022-10-30T08:59:58.660Z,97615.69
2022-10-30T09:02:01.390Z,97613.94
2022-10-30T09:04:04.230Z,97610.13
2022-10-30T09:06:07.238Z,97607.84
2022-10-30T09:08:09.795Z,97606.59
2022-10-30T09:10:12.838Z,97601.66
2022-10-30T09:12:16.901Z,97600.88
2022-10-30T09:14:19.479Z,97599.97
2022-10-30T09:16:22.032Z,97605.50
2022-10-30T09:18:24.592Z,97603.56
2022-10-30T09:20:28.004Z,97600.56
2022-10-30T09:22:30.603Z,97602.56
2022-10-30T09:24:33.146Z,97609.13
2022-10-30T09:26:35.725Z,97605.81
2022-10-30T09:28:39.634Z,97600.56
2022-10-30T09:30:42.228Z,97614.09
2022-10-30T09:32:44.842Z,97608.97
2022-10-30T09:34:48.112Z,97611.47
2022-10-30T09:36:50.663Z,97610.59
2022-10-30T09:38:53.779Z,97610.50
2022-10-30T09:41:22.715Z,97609.63
2022-10-30T09:43:36.650Z,97615.47
2022-10-30T09:45:57.085Z,97621.78
2022-10-30T09:48:12.153Z,97616.59
2022-10-30T09:50:26.276Z,97617.50
2022-10-30T09:52:39.325Z,97610.41
2022-10-30T09:54:56.749Z,97616.44
2022-10-30T09:57:05.418Z,97611.47
2022-10-30T09:59:20.838Z,97615.09
2022-10-30T10:01:30.223Z,97610.59
2022-10-30T10:03:43.030Z,97605.34
2022-10-30T10:05:50.721Z,97610.44
2022-10-30T10:07:58.056Z,97610.25
2022-10-30T10:10:04.312Z,97615.38
2022-10-30T10:12:12.162Z,97615.38
2022-10-30T10:14:21.187Z,97613.56
2022-10-30T10:16:31.194Z,97614.19
2022-10-30T10:18:38.996Z,97616.91
2022-10-30T10:20:44.851Z,97624.69
2022-10-30T10:22:49.897Z,97620.13
2022-10-30T10:24:54.294Z,97622.34
2022-10-30T10:27:01.307Z,97623.50
2022-10-30T10:29:25.437Z,97615.59
2022-10-30T10:31:40.323Z,97614.78
2022-10-30T10:33:57.645Z,97611.28
2022-10-30T10:36:11.117Z,97613.16
2022-10-30T10:38:27.162Z,97611.44
2022-10-30T10:40:45.988Z,97611.56
2022-10-30T10:43:01.482Z,97602.00
2022-10-30T10:45:20.706Z,97598.28
2022-10-30T10:47:47.522Z,97597.41
2022-10-30T10:50:03.967Z,97594.66
2022-10-30T10:52:11.035Z,97590.94
2022-10-30T10:54:17.808Z,97592.59
2022-10-30T10:56:27.725Z,97588.72
2022-10-30T10:58:36.346Z,97585.66
2022-10-30T11:00:39.468Z,97585.41
2022-10-30T11:02:50.073Z,97579.81
2022-10-30T11:04:55.018Z,97581.31
2022-10-30T11:06:59.336Z,97584.63
2022-10-30T11:09:16.395Z,97580.03
2022-10-30T11:11:19.007Z,97581.56
2022-10-30T11:13:21.614Z,97576.03
2022-10-30T11:15:36.087Z,97579.22
2022-10-30T11:17:43.896Z,97571.91
2022-10-30T11:19:51.998Z,97571.56
2022-10-30T11:21:57.190Z,97564.53
2022-10-30T11:23:59.845Z,97560.84
2022-10-30T11:26:03.429Z,97565.13
2022-10-30T11:28:06.999Z,97567.56
2022-10-30T11:30:19.484Z,97565.59
2022-10-30T11:32:23.504Z,97557.59
2022-10-30T11:34:33.194Z,97561.81
2022-10-30T11:36:37.131Z,97559.28
2022-10-30T11:38:39.724Z,97556.56
2022-10-30T11:40:52.728Z,97551.28
2022-10-30T11:43:00.487Z,97553.91
2022-10-30T11:45:05.385Z,97555.72
2022-10-30T11:47:09.496Z,97558.38
2022-10-30T11:49:26.903Z,97560.13
2022-10-30T11:51:36.427Z,97558.25
2022-10-30T11:53:43.798Z,97554.44
2022-10-30T11:55:49.199Z,97560.94
2022-10-30T11:57:56.202Z,97553.81
2022-10-30T12:00:04.609Z,97557.41
2022-10-30T12:02:22.712Z,97545.94
2022-10-30T12:04:27.797Z,97545.38
2022-10-30T12:06:30.795Z,97538.66
2022-10-30T12:08:33.410Z,97548.00
2022-10-30T12:10:45.059Z,97546.09
2022-10-30T12:12:52.419Z,97542.31
2022-10-30T12:14:56.063Z,97546.25
2022-10-30T12:16:59.821Z,97540.69
2022-10-30T12:19:04.920Z,97540.88
2022-10-30T12:21:08.919Z,97537.59
2022-10-30T12:23:13.671Z,97530.84
2022-10-30T12:25:25.851Z,97527.56
2022-10-30T12:27:32.356Z,97530.25
2022-10-30T12:30:06.965Z,97532.16
2022-10-30T12:32:09.069Z,97529.59
2022-10-30T12:34:27.643Z,97529.59
2022-10-30T12:36:36.074Z,97529.88
2022-10-30T12:38:44.599Z,97528.22
2022-10-30T12:41:01.163Z,97525.38
2022-10-30T12:43:16.367Z,97526.94
2022-10-30T12:45:24.886Z,97519.41
2022-10-30T12:47:35.304Z,97524.28
2022-10-30T12:49:43.083Z,97525.69
2022-10-30T12:51:55.171Z,97520.09
2022-10-30T12:54:03.493Z,97525.13
2022-10-30T12:56:12.078Z,97521.44
2022-10-30T12:58:24.792Z,97511.50
2022-10-30T13:00:31.570Z,97511.31
2022-10-30T13:02:46.562Z,97510.72
2022-10-30T13:04:55.459Z,97506.06
2022-10-30T13:07:05.749Z,97506.94
2022-10-30T13:09:16.418Z,97512.75
2022-10-30T13:11:26.532Z,97505.59
2022-10-30T13:13:36.310Z,97495.84
2022-10-30T13:15:45.308Z,97507.38
2022-10-30T13:17:47.948Z,97500.41
2022-10-30T13:19:51.047Z,97504.84
2022-10-30T13:22:01.270Z,97499.56
2022-10-30T13:24:07.493Z,97504.50
2022-10-30T13:26:20.168Z,97502.72
2022-10-30T13:28:27.117Z,97505.25
2022-10-30T13:30:37.938Z,97498.41
2022-10-30T13:32:53.596Z,97504.72
2022-10-30T13:35:09.334Z,97500.31
2022-10-30T13:37:17.456Z,97501.22
2022-10-30T13:39:29.275Z,97498.41
2022-10-30T13:41:39.341Z,97494.91
2022-10-30T13:43:50.780Z,97501.69
2022-10-30T13:46:28.208Z,97501.69
2022-10-30T13:48:43.279Z,97505.06
2022-10-30T13:51:07.696Z,97502.31
2022-10-30T13:53:15.733Z,97500.53
2022-10-30T13:55:23.860Z,97502.13
2022-10-30T13:57:31.033Z,97504.66
2022-10-30T13:59:50.703Z,97501.16
2022-10-30T14:02:02.279Z,97498.31
2022-10-30T14:04:07.987Z,97501.91
2022-10-30T14:06:17.265Z,97502.34
2022-10-30T14:10:46.001Z,97492.94
2022-10-30T14:12:54.044Z,97496.13
2022-10-30T14:14:56.643Z,97500.25
2022-10-30T14:17:15.679Z,97500.88
2022-10-30T14:19:19.761Z,97499.81
2022-10-30T14:21:43.233Z,97501.53
2022-10-30T14:23:45.976Z,97506.59
2022-10-30T14:26:16.128Z,97503.94
2022-10-30T14:28:21.180Z,97507.56
2022-10-30T14:30:23.787Z,97504.91
2022-10-30T14:32:43.029Z,97505.94
2022-10-30T14:34:47.207Z,97506.91
2022-10-30T14:36:50.013Z,97503.53
2022-10-30T14:39:00.171Z,97505.53
2022-10-30T14:41:48.586Z,97506.78
2022-10-30T14:44:04.431Z,97500.88
2022-10-30T14:46:18.376Z,97508.03
2022-10-30T14:48:28.475Z,97507.31
2022-10-30T14:50:55.777Z,97501.41
2022-10-30T14:53:35.795Z,97506.03
2022-10-30T14:55:53.366Z,97506.22
2022-10-30T14:58:18.120Z,97505.59
2022-10-30T15:00:45.599Z,97513.63
2022-10-30T15:02:55.986Z,97509.81
2022-10-30T15:05:16.693Z,97512.25
2022-10-30T15:07:27.773Z,97517.53
2022-10-30T15:09:41.578Z,97519.53
2022-10-30T15:12:22.072Z,97517.22
2022-10-30T15:14:40.705Z,97516.47
2022-10-30T15:16:52.455Z,97520.25
2022-10-30T15:19:02.427Z,97516.69
2022-10-30T15:21:08.904Z,97514.91
2022-10-30T15:23:17.010Z,97514.97
2022-10-30T15:25:21.741Z,97519.53
2022-10-30T15:27:26.507Z,97514.91
2022-10-30T15:29:32.999Z,97517.53
2022-10-30T15:31:35.549Z,97513.81
2022-10-30T15:33:38.772Z,97516.56
2022-10-30T15:35:48.526Z,97515.59
2022-10-30T15:38:07.360Z,97522.59
2022-10-30T15:40:11.298Z,97522.59
2022-10-30T15:42:14.421Z,97528.09
2022-10-30T15:44:19.943Z,97528.28
2022-10-30T15:46:22.739Z,97535.38
2022-10-30T15:48:28.270Z,97533.38
2022-10-30T15:50:32.066Z,97538.00
2022-10-30T15:52:35.925Z,97534.72
2022-10-30T15:54:42.873Z,97530.38
2022-10-30T15:57:15.773Z,97531.44
2022-10-30T15:59:18.447Z,97536.91
2022-10-30T16:01:29.110Z,97537.09
2022-10-30T16:03:32.731Z,97533.06
2022-10-30T16:05:36.055Z,97539.63
2022-10-30T16:07:46.018Z,97535.47
2022-10-30T16:09:58.792Z,97539.31
2022-10-30T16:12:01.734Z,97533.28
2022-10-30T16:14:09.098Z,97534.44
2022-10-30T16:16:17.619Z,97535.59
2022-10-30T16:18:22.352Z,97537.56
2022-10-30T16:20:25.573Z,97533.44
2022-10-30T16:22:30.276Z,97531.84
2022-10-30T16:24:36.418Z,97532.78
2022-10-30T16:26:40.369Z,97525.06
2022-10-30T16:28:48.462Z,97531.41
2022-10-30T16:30:51.570Z,97534.09
2022-10-30T16:32:54.640Z,97536.84
2022-10-30T16:34:59.631Z,97535.16
2022-10-30T16:37:03.682Z,97539.59
2022-10-30T16:39:06.631Z,97533.56
2022-10-30T16:41:13.381Z,97533.66
2022-10-30T16:43:27.890Z,97530.19
2022-10-30T16:45:51.865Z,97531.22
2022-10-30T16:48:03.098Z,97524.34
2022-10-30T16:50:13.355Z,97528.78
2022-10-30T16:52:17.428Z,97530.66
2022-10-30T16:54:22.682Z,97528.03
2022-10-30T16:56:27.449Z,97540.44
2022-10-30T16:58:32.721Z,97533.50
2022-10-30T17:00:36.768Z,97546.69
2022-10-30T17:02:48.358Z,97538.13
2022-10-30T17:04:57.014Z,97545.06
2022-10-30T17:07:19.919Z,97542.53
2022-10-30T17:09:25.903Z,97540.84
2022-10-30T17:11:37.267Z,97546.03
2022-10-30T17:13:56.809Z,97549.69
2022-10-30T17:16:00.340Z,97554.97
2022-10-30T17:18:11.803Z,97553.28
2022-10-30T17:20:30.799Z,97557.78
2022-10-30T17:22:34.334Z,97563.25
2022-10-30T17:24:39.290Z,97556.47
2022-10-30T17:26:42.010Z,97562.75
2022-10-30T17:28:46.897Z,97564.78
2022-10-30T17:30:49.457Z,97563.06
2022-10-30T17:32:55.134Z,97566.81
2022-10-30T17:35:01.893Z,97571.34
2022-10-30T17:37:04.894Z,97566.44
2022-10-30T17:39:08.125Z,97571.16
2022-10-30T17:41:16.766Z,97573.03
2022-10-30T17:43:19.389Z,97568.03
2022-10-30T17:45:23.338Z,97579.59
2022-10-30T17:47:26.267Z,97576.28
2022-10-30T17:49:30.299Z,97580.88
2022-10-30T17:51:32.960Z,97587.19
2022-10-30T17:53:35.625Z,97582.94
2022-10-30T17:55:39.857Z,97583.88
2022-10-30T17:57:42.405Z,97582.25
2022-10-30T17:59:45.019Z,97584.06
2022-10-30T18:01:49.875Z,97581.44
2022-10-30T18:03:54.909Z,97589.34
2022-10-30T18:05:58.655Z,97587.03
2022-10-30T18:08:01.304Z,97582.72
2022-10-30T18:10:03.923Z,97589.00
2022-10-30T18:12:07.646Z,97590.78
2022-10-30T18:14:11.587Z,97598.78
2022-10-30T18:16:17.173Z,97592.69
2022-10-30T18:18:21.114Z,97598.06
2022-10-30T18:20:24.039Z,97606.78
2022-10-30T18:22:26.635Z,97606.78
2022-10-30T18:24:29.297Z,97598.97
2022-10-30T18:26:35.171Z,97599.81
2022-10-30T18:28:40.340Z,97605.19
2022-10-30T18:30:43.766Z,97612.31
2022-10-30T18:32:46.982Z,97603.75
2022-10-30T18:34:50.943Z,97609.34
2022-10-30T18:36:53.527Z,97606.72
2022-10-30T18:38:56.185Z,97611.16
2022-10-30T18:40:59.488Z,97606.91
2022-10-30T18:43:02.800Z,97609.34
2022-10-30T18:45:18.882Z,97615.56
2022-10-30T18:47:21.495Z,97605.03
2022-10-30T18:49:26.566Z,97611.25
2022-10-30T18:51:30.814Z,97607.94
2022-10-30T18:53:35.318Z,97613.44
2022-10-30T18:55:39.882Z,97611.94
2022-10-30T18:57:42.571Z,97613.22
2022-10-30T18:59:45.193Z,97613.66
2022-10-30T19:01:47.924Z,97622.72
2022-10-30T19:03:50.808Z,97615.09
2022-10-30T19:05:53.379Z,97622.31
2022-10-30T19:07:58.359Z,97622.50
2022-10-30T19:10:01.497Z,97617.38
2022-10-30T19:12:04.124Z,97626.31
2022-10-30T19:14:10.907Z,97621.13
2022-10-30T19:16:16.122Z,97621.44
2022-10-30T19:18:20.928Z,97625.34
2022-10-30T19:20:37.541Z,97627.44
2022-10-30T19:22:46.114Z,97632.09
2022-10-30T19:24:50.006Z,97634.22
2022-10-30T19:26:52.609Z,97632.59
2022-10-30T19:28:55.159Z,97631.97
2022-10-30T19:30:57.779Z,97636.56
2022-10-30T19:33:00.347Z,97647.06
2022-10-30T19:35:02.940Z,97632.66
2022-10-30T19:37:05.499Z,97640.59
2022-10-30T19:39:13.081Z,97637.69
2022-10-30T19:41:17.023Z,97637.16
2022-10-30T19:43:19.755Z,97632.53
2022-10-30T19:45:24.462Z,97639.78
2022-10-30T19:47:27.084Z,97635.16
2022-10-30T19:49:29.654Z,97635.41
2022-10-30T19:51:32.226Z,97645.13
2022-10-30T19:53:34.875Z,97645.91
2022-10-30T19:55:38.773Z,97645.91
2022-10-30T19:57:42.700Z,97646.91
2022-10-30T19:59:45.313Z,97645.28
2022-10-30T20:01:47.960Z,97650.38
2022-10-30T20:03:50.600Z,97651.31
2022-10-30T20:05:54.164Z,97650.53
2022-10-30T20:08:05.238Z,97650.38
2022-10-30T20:10:16.229Z,97647.16
2022-10-30T20:12:18.830Z,97655.47
2022-10-30T20:14:22.745Z,97653.34
2022-10-30T20:16:25.324Z,97645.59
2022-10-30T20:18:31.346Z,97646.88
2022-10-30T20:20:35.720Z,97647.22
2022-10-30T20:22:38.320Z,97651.31
2022-10-30T20:24:40.880Z,97649.97
2022-10-30T20:26:43.579Z,97651.03
2022-10-30T20:28:46.737Z,97656.50
2022-10-30T20:30:50.967Z,97655.66
2022-10-30T20:32:53.599Z,97657.41
2022-10-30T20:34:57.980Z,97650.59
2022-10-30T20:37:00.598Z,97652.94
2022-10-30T20:39:03.201Z,97658.97
2022-10-30T20:41:06.740Z,97654.56
2022-10-30T20:43:13.134Z,97650.09
2022-10-30T20:45:17.798Z,97656.19
2022-10-30T20:47:21.794Z,97651.81
2022-10-30T20:49:24.445Z,97664.00
2022-10-30T20:51:27.054Z,97666.53
2022-10-30T20:53:30.676Z,97669.09
2022-10-30T20:55:34.486Z,97671.63
2022-10-30T20:59:44.923Z,97668.19
2022-10-30T21:01:47.618Z,97662.06
2022-10-30T21:03:53.749Z,97663.00
2022-10-30T21:05:59.891Z,97665.72
2022-10-30T21:08:02.818Z,97668.78
2022-10-30T21:10:06.385Z,97668.22
2022-10-30T21:12:09.124Z,97673.59
2022-10-30T21:14:11.742Z,97672.75
2022-10-30T21:16:14.349Z,97672.84
2022-10-30T21:18:16.927Z,97674.81
2022-10-30T21:20:21.027Z,97673.19
2022-10-30T21:22:23.641Z,97667.25
2022-10-30T21:24:27.506Z,97667.25
2022-10-30T21:26:30.067Z,97676.31
2022-10-30T21:28:32.690Z,97671.38
2022-10-30T21:30:36.023Z,97663.94
2022-10-30T21:32:38.685Z,97661.44
2022-10-30T21:34:41.338Z,97675.31
2022-10-30T21:36:45.289Z,97673.78
2022-10-30T21:38:47.907Z,97671.28
2022-10-30T21:40:56.955Z,97679.13
2022-10-30T21:43:03.062Z,97681.84
2022-10-30T21:45:08.572Z,97684.47
2022-10-30T21:47:11.189Z,97671.28
2022-10-30T21:49:16.299Z,97673.84
2022-10-30T21:51:20.627Z,97671.94
2022-10-30T21:53:24.516Z,97676.47
2022-10-30T21:55:27.078Z,97675.63
2022-10-30T21:57:29.733Z,97677.44
2022-10-30T21:59:32.314Z,97677.44
2022-10-30T22:01:37.070Z,97680.78
2022-10-30T22:03:39.750Z,97671.09
2022-10-30T22:05:42.324Z,97672.50
2022-10-30T22:07:44.866Z,97675.06
2022-10-30T22:09:48.765Z,97678.22
2022-10-30T22:11:51.391Z,97673.00
2022-10-30T22:13:55.331Z,97683.94
2022-10-30T22:15:58.125Z,97679.03
2022-10-30T22:18:00.900Z,97677.84
2022-10-30T22:20:04.535Z,97684.75
2022-10-30T22:22:07.143Z,97677.91
2022-10-30T22:24:09.939Z,97678.72
2022-10-30T22:26:15.435Z,97672.19
2022-10-30T22:30:25.498Z,97674.09
2022-10-30T22:32:28.132Z,97671.88
2022-10-30T22:34:30.731Z,97669.91
2022-10-30T22:36:34.537Z,97679.69
2022-10-30T22:38:37.095Z,97676.97
2022-10-30T22:40:39.904Z,97675.94
2022-10-30T22:42:43.826Z,97686.22
2022-10-30T22:44:46.355Z,97682.84
2022-10-30T22:46:48.920Z,97681.03
2022-10-30T22:48:51.907Z,97680.28
2022-10-30T22:50:57.856Z,97684.59
2022-10-30T22:53:00.680Z,97683.66
2022-10-30T22:55:03.291Z,97685.38
2022-10-30T22:57:05.953Z,97680.72
2022-10-30T22:59:13.128Z,97679.28
2022-10-30T23:01:17.622Z,97680.28
2022-10-30T23:03:20.301Z,97681.97
2022-10-30T23:05:23.968Z,97681.25
2022-10-30T23:07:26.570Z,97680.41
2022-10-30T23:09:29.158Z,97683.16
2022-10-30T23:11:33.092Z,97674.59
2022-10-30T23:13:36.979Z,97685.00
2022-10-30T23:15:41.023Z,97677.91
2022-10-30T23:17:44.380Z,97677.78
2022-10-30T23:19:46.928Z,97683.94
2022-10-30T23:21:49.499Z,97681.31
2022-10-30T23:23:52.933Z,97684.09
2022-10-30T23:25:56.022Z,97682.31
2022-10-30T23:27:58.923Z,97681.47
2022-10-30T23:30:04.052Z,97689.34
2022-10-30T23:32:08.636Z,97685.78
2022-10-30T23:34:13.403Z,97690.94
2022-10-30T23:36:16.863Z,97686.50
2022-10-30T23:38:19.412Z,97691.75
2022-10-30T23:40:22.088Z,97698.88
2022-10-30T23:42:24.744Z,97689.38
2022-10-30T23:44:27.326Z,97682.44
2022-10-30T23:46:30.373Z,97685.13
2022-10-30T23:48:34.275Z,97679.81
2022-10-30T23:50:36.899Z,97685.28
2022-10-30T23:52:39.558Z,97683.16
2022-10-30T23:54:42.177Z,97684.41
2022-10-30T23:56:44.726Z,97693.00
2022-10-30T23:58:48.673Z,97688.63
